createdAt,value
2023-01-18T00:01:07.846Z,38.60
2023-01-18T00:03:36.819Z,41.75
2023-01-18T00:06:05.640Z,38.97
2023-01-18T00:08:34.310Z,38.30
2023-01-18T00:11:12.893Z,34.95
2023-01-18T00:13:40.263Z,42.60
2023-01-18T00:16:12.274Z,38.30
2023-01-18T00:18:39.566Z,43.78
2023-01-18T00:21:09.050Z,39.83
2023-01-18T00:23:36.669Z,41.70
2023-01-18T00:26:06.330Z,42.25
2023-01-18T00:28:33.846Z,42.42
2023-01-18T00:31:00.783Z,40.92
2023-01-18T00:33:27.630Z,42.75
2023-01-18T00:35:58.758Z,38.90
2023-01-18T00:38:26.550Z,44.22
2023-01-18T00:40:53.546Z,36.67
2023-01-18T00:43:38.947Z,37.72
2023-01-18T00:46:11.190Z,42.15
2023-01-18T00:48:39.761Z,41.28
2023-01-18T00:51:08.241Z,45.20
2023-01-18T00:53:35.145Z,35.97
2023-01-18T00:56:01.946Z,38.75
2023-01-18T00:58:28.986Z,38.17
2023-01-18T01:00:55.871Z,40.88
2023-01-18T01:03:22.878Z,39.53
2023-01-18T01:06:08.349Z,38.85
2023-01-18T01:08:35.250Z,41.15
2023-01-18T01:11:10.925Z,39.33
2023-01-18T01:13:57.273Z,44.30
2023-01-18T01:16:43.043Z,46.25
2023-01-18T01:19:28.678Z,41.75
2023-01-18T01:22:14.193Z,37.88
2023-01-18T01:24:59.628Z,47.08
2023-01-18T01:27:26.823Z,42.78
2023-01-18T01:29:54.386Z,36.92
2023-01-18T01:32:21.173Z,39.63
2023-01-18T01:34:48.356Z,37.67
2023-01-18T01:37:15.164Z,38.40
2023-01-18T01:39:41.910Z,33.45
2023-01-18T01:42:12.007Z,46.78
2023-01-18T01:44:43.893Z,33.60
2023-01-18T01:47:20.035Z,31.63
2023-01-18T01:49:50.981Z,41.38
2023-01-18T01:52:24.877Z,37.70
2023-01-18T01:55:02.399Z,33.45
2023-01-18T01:57:34.249Z,35.30
2023-01-18T02:00:03.316Z,33.33
2023-01-18T02:02:32.888Z,34.33
2023-01-18T02:05:03.065Z,31.98
2023-01-18T02:07:30.073Z,34.87
2023-01-18T02:09:58.654Z,32.63
2023-01-18T02:12:26.320Z,37.20
2023-01-18T02:14:53.549Z,30.00
2023-01-18T02:17:28.430Z,29.70
2023-01-18T02:20:19.572Z,30.20
2023-01-18T02:22:55.296Z,34.42
2023-01-18T02:25:53.744Z,23.80
2023-01-18T02:28:35.704Z,26.40
2023-01-18T02:31:08.798Z,23.52
2023-01-18T02:34:13.511Z,27.73
2023-01-18T02:37:05.818Z,28.88
2023-01-18T02:39:41.321Z,34.42
2023-01-18T02:42:55.529Z,30.45
2023-01-18T02:45:46.949Z,24.90
2023-01-18T02:48:15.105Z,26.25
2023-01-18T02:50:42.133Z,22.85
2023-01-18T02:53:13.721Z,24.17
2023-01-18T02:56:06.937Z,32.22
2023-01-18T02:58:39.048Z,23.35
2023-01-18T03:01:19.516Z,27.15
2023-01-18T03:03:50.390Z,27.27
2023-01-18T03:06:18.635Z,21.85
2023-01-18T03:08:52.276Z,22.60
2023-01-18T03:11:26.897Z,25.05
2023-01-18T03:14:17.841Z,22.30
2023-01-18T03:17:06.422Z,27.02
2023-01-18T03:20:07.844Z,24.27
2023-01-18T03:23:28.982Z,25.55
2023-01-18T03:25:57.621Z,17.80
2023-01-18T03:28:49.628Z,18.70
2023-01-18T03:32:07.147Z,22.80
2023-01-18T03:34:44.783Z,21.58
2023-01-18T03:37:16.726Z,20.27
2023-01-18T03:39:47.798Z,23.02
2023-01-18T03:42:31.400Z,23.98
2023-01-18T03:45:27.624Z,26.48
2023-01-18T03:47:54.761Z,24.83
2023-01-18T03:50:30.237Z,29.45
2023-01-18T03:53:00.372Z,24.00
2023-01-18T03:55:40.641Z,21.90
2023-01-18T03:58:12.439Z,24.92
2023-01-18T04:00:40.072Z,26.00
2023-01-18T04:03:07.237Z,21.88
2023-01-18T04:05:35.373Z,23.60
2023-01-18T04:08:02.287Z,26.08
2023-01-18T04:10:29.228Z,26.15
2023-01-18T04:12:56.481Z,29.27
2023-01-18T04:15:23.858Z,26.80
2023-01-18T04:17:53.321Z,23.27
2023-01-18T04:20:20.203Z,23.58
2023-01-18T04:22:52.331Z,22.83
2023-01-18T04:25:19.793Z,27.63
2023-01-18T04:27:46.702Z,26.88
2023-01-18T04:30:13.700Z,23.58
2023-01-18T04:32:42.756Z,24.58
2023-01-18T04:35:10.102Z,26.98
2023-01-18T04:37:38.231Z,25.48
2023-01-18T04:40:06.589Z,23.30
2023-01-18T04:42:33.619Z,25.70
2023-01-18T04:45:00.731Z,25.10
2023-01-18T04:47:30.967Z,25.63
2023-01-18T04:49:57.952Z,26.58
2023-01-18T04:52:26.782Z,31.33
2023-01-18T04:54:53.759Z,31.20
2023-01-18T04:57:20.931Z,29.85
2023-01-18T04:59:47.888Z,24.83
2023-01-18T05:02:15.523Z,31.80
2023-01-18T05:04:43.727Z,28.02
2023-01-18T05:07:11.313Z,23.08
2023-01-18T05:09:38.140Z,28.45
2023-01-18T05:12:05.105Z,35.10
2023-01-18T05:14:31.983Z,27.00
2023-01-18T05:16:58.734Z,25.02
2023-01-18T05:19:30.074Z,24.13
2023-01-18T05:21:57.091Z,33.10
2023-01-18T05:24:23.967Z,25.65
2023-01-18T05:26:50.966Z,26.95
2023-01-18T05:29:18.169Z,22.25
2023-01-18T05:31:45.071Z,23.90
2023-01-18T05:34:11.949Z,24.13
2023-01-18T05:36:38.794Z,22.75
2023-01-18T05:39:06.512Z,45.60
2023-01-18T05:41:33.303Z,23.42
2023-01-18T05:44:00.109Z,22.85
2023-01-18T05:46:26.941Z,25.92
2023-01-18T05:48:57.636Z,24.00
2023-01-18T05:51:25.048Z,21.98
2023-01-18T05:53:51.889Z,26.05
2023-01-18T05:56:18.628Z,23.17
2023-01-18T05:58:45.455Z,23.77
2023-01-18T06:01:12.344Z,23.13
2023-01-18T06:03:39.994Z,17.77
2023-01-18T06:06:07.056Z,32.83
2023-01-18T06:08:34.002Z,23.73
2023-01-18T06:11:01.334Z,18.05
2023-01-18T06:13:30.174Z,19.67
2023-01-18T06:15:59.334Z,19.17
2023-01-18T06:18:28.171Z,29.05
2023-01-18T06:21:01.264Z,20.50
2023-01-18T06:23:29.456Z,19.08
2023-01-18T06:25:56.587Z,17.15
2023-01-18T06:28:23.718Z,31.00
2023-01-18T06:30:55.410Z,18.90
2023-01-18T06:33:24.117Z,22.75
2023-01-18T06:35:51.062Z,18.77
2023-01-18T06:38:18.065Z,20.33
2023-01-18T06:40:44.961Z,17.02
2023-01-18T06:43:14.283Z,22.00
2023-01-18T06:45:41.432Z,15.38
2023-01-18T06:48:08.423Z,12.13
2023-01-18T06:50:35.389Z,12.10
2023-01-18T06:53:02.257Z,11.65
2023-01-18T06:55:29.043Z,12.48
2023-01-18T06:57:57.161Z,16.27
2023-01-18T07:00:24.490Z,14.90
2023-01-18T07:02:52.975Z,13.50
2023-01-18T07:05:20.231Z,12.20
2023-01-18T07:07:47.213Z,8.63
2023-01-18T07:10:16.345Z,9.32
2023-01-18T07:12:47.449Z,9.60
2023-01-18T07:15:21.595Z,10.25
2023-01-18T07:17:50.451Z,7.20
2023-01-18T07:20:17.921Z,10.25
2023-01-18T07:22:44.708Z,11.98
2023-01-18T07:25:18.842Z,19.38
2023-01-18T07:27:46.322Z,7.45
2023-01-18T07:30:13.552Z,10.77
2023-01-18T07:32:44.753Z,7.82
2023-01-18T07:35:11.688Z,6.90
2023-01-18T07:37:38.748Z,5.28
2023-01-18T07:40:06.162Z,8.05
2023-01-18T07:42:32.893Z,6.95
2023-01-18T07:44:59.645Z,9.93
2023-01-18T07:47:26.421Z,7.68
2023-01-18T07:49:53.197Z,8.02
2023-01-18T07:52:19.953Z,5.38
2023-01-18T07:54:46.741Z,6.53
2023-01-18T07:57:13.588Z,7.75
2023-01-18T07:59:40.445Z,4.82
2023-01-18T08:02:08.845Z,11.05
2023-01-18T08:04:35.803Z,7.43
2023-01-18T08:07:02.662Z,5.43
2023-01-18T08:09:29.500Z,4.95
2023-01-18T08:11:56.359Z,3.10
2023-01-18T08:14:23.357Z,4.63
2023-01-18T08:16:50.173Z,4.38
2023-01-18T08:19:17.450Z,6.55
2023-01-18T08:21:45.290Z,5.05
2023-01-18T08:24:13.048Z,11.93
2023-01-18T08:26:40.085Z,7.38
2023-01-18T08:29:06.954Z,8.57
2023-01-18T08:31:33.814Z,4.93
2023-01-18T08:34:02.069Z,4.55
2023-01-18T08:36:28.852Z,4.03
2023-01-18T08:38:59.605Z,3.58
2023-01-18T08:41:31.183Z,4.35
2023-01-18T08:43:59.469Z,4.05
2023-01-18T08:46:26.419Z,8.98
2023-01-18T08:48:56.001Z,2.75
2023-01-18T08:51:25.961Z,5.45
2023-01-18T08:53:54.390Z,4.90
2023-01-18T08:56:21.532Z,5.60
2023-01-18T08:58:48.610Z,2.58
2023-01-18T09:01:15.644Z,8.00
2023-01-18T09:03:42.558Z,2.53
2023-01-18T09:06:12.560Z,2.13
2023-01-18T09:08:39.706Z,1.77
2023-01-18T09:11:08.279Z,2.55
2023-01-18T09:13:35.253Z,5.05
2023-01-18T09:16:04.417Z,2.20
2023-01-18T09:18:31.505Z,2.03
2023-01-18T09:20:58.636Z,4.68
2023-01-18T09:23:25.953Z,1.90
2023-01-18T09:26:17.211Z,2.40
2023-01-18T09:28:47.669Z,2.55
2023-01-18T09:31:14.862Z,4.75
2023-01-18T09:33:51.206Z,5.82
2023-01-18T09:36:21.630Z,5.00
2023-01-18T09:38:48.617Z,3.85
2023-01-18T09:41:27.311Z,2.35
2023-01-18T09:43:58.457Z,1.65
2023-01-18T09:46:25.644Z,2.42
2023-01-18T09:48:59.389Z,6.70
2023-01-18T09:51:32.252Z,5.78
2023-01-18T09:54:29.350Z,4.80
2023-01-18T09:57:20.982Z,1.65
2023-01-18T09:59:57.890Z,6.05
2023-01-18T10:02:39.216Z,2.05
2023-01-18T10:05:22.046Z,4.70
2023-01-18T10:08:04.947Z,7.90
2023-01-18T10:10:39.425Z,3.40
2023-01-18T10:13:35.290Z,2.65
2023-01-18T10:16:03.240Z,2.65
2023-01-18T10:18:30.807Z,2.15
2023-01-18T10:21:01.498Z,1.85
2023-01-18T10:23:34.736Z,1.80
2023-01-18T10:26:21.975Z,2.60
2023-01-18T10:28:53.258Z,1.90
2023-01-18T10:31:44.452Z,2.40
2023-01-18T10:34:21.138Z,2.47
2023-01-18T10:36:58.921Z,5.47
2023-01-18T10:39:36.481Z,2.80
2023-01-18T10:42:07.018Z,4.10
2023-01-18T10:44:33.802Z,3.92
2023-01-18T10:47:01.526Z,4.28
2023-01-18T10:49:37.166Z,2.20
2023-01-18T10:52:29.685Z,2.80
2023-01-18T10:55:02.695Z,4.28
2023-01-18T10:57:43.432Z,3.17
2023-01-18T11:00:30.746Z,8.48
2023-01-18T11:02:59.382Z,3.42
2023-01-18T11:05:45.574Z,2.85
2023-01-18T11:08:31.642Z,3.25
2023-01-18T11:11:49.297Z,7.07
2023-01-18T11:14:29.339Z,4.20
2023-01-18T11:16:58.895Z,7.03
2023-01-18T11:19:26.143Z,3.58
2023-01-18T11:21:53.968Z,6.88
2023-01-18T11:24:28.310Z,7.78
2023-01-18T11:27:07.434Z,15.88
2023-01-18T11:29:43.255Z,9.38
2023-01-18T11:32:24.067Z,5.68
2023-01-18T11:34:56.047Z,4.20
2023-01-18T11:37:28.808Z,18.17
2023-01-18T11:39:55.884Z,4.63
2023-01-18T11:42:32.106Z,6.70
2023-01-18T11:45:16.884Z,8.10
2023-01-18T11:47:50.267Z,4.18
2023-01-18T11:50:23.085Z,9.68
2023-01-18T11:52:53.709Z,4.30
2023-01-18T11:55:56.466Z,11.32
2023-01-18T11:58:29.368Z,3.05
2023-01-18T12:01:21.633Z,3.95
2023-01-18T12:04:03.733Z,3.15
2023-01-18T12:06:41.794Z,3.00
2023-01-18T12:09:11.895Z,2.58
2023-01-18T12:12:19.411Z,2.63
2023-01-18T12:15:08.060Z,2.67
2023-01-18T12:18:22.930Z,2.15
2023-01-18T12:21:09.241Z,3.05
2023-01-18T12:23:47.577Z,2.42
2023-01-18T12:26:35.483Z,2.78
2023-01-18T12:29:10.774Z,4.70
2023-01-18T12:31:49.349Z,2.28
2023-01-18T12:34:22.152Z,2.50
2023-01-18T12:37:01.767Z,3.40
2023-01-18T12:39:34.259Z,2.17
2023-01-18T12:42:07.498Z,3.10
2023-01-18T12:45:09.992Z,4.07
2023-01-18T12:47:42.497Z,4.90
2023-01-18T12:50:23.278Z,3.58
2023-01-18T12:52:54.975Z,3.60
2023-01-18T12:55:26.300Z,2.38
2023-01-18T12:57:58.961Z,2.45
2023-01-18T13:00:39.496Z,2.05
2023-01-18T13:03:16.358Z,2.65
2023-01-18T13:05:53.143Z,4.90
2023-01-18T13:08:53.702Z,1.60
2023-01-18T13:11:42.237Z,2.30
2023-01-18T13:14:44.012Z,1.98
2023-01-18T13:17:28.574Z,1.90
2023-01-18T13:20:02.259Z,1.85
2023-01-18T13:22:41.214Z,2.83
2023-01-18T13:25:32.313Z,2.10
2023-01-18T13:28:20.273Z,1.83
2023-01-18T13:30:53.208Z,2.28
2023-01-18T13:33:24.108Z,2.55
2023-01-18T13:36:11.074Z,2.00
2023-01-18T13:38:58.198Z,2.70
2023-01-18T13:41:27.218Z,2.63
2023-01-18T13:44:30.261Z,5.15
2023-01-18T13:46:59.695Z,5.68
2023-01-18T13:49:38.503Z,2.38
2023-01-18T13:52:33.645Z,3.40
2023-01-18T13:55:05.422Z,2.47
2023-01-18T13:57:34.264Z,3.53
2023-01-18T14:00:02.440Z,3.17
2023-01-18T14:02:34.222Z,3.58
2023-01-18T14:05:06.444Z,2.95
2023-01-18T14:07:42.249Z,4.43
2023-01-18T14:10:25.433Z,3.20
2023-01-18T14:12:55.080Z,4.15
2023-01-18T14:15:41.876Z,3.30
2023-01-18T14:18:29.891Z,3.05
2023-01-18T14:21:38.341Z,3.03
2023-01-18T14:24:14.537Z,3.70
2023-01-18T14:26:43.204Z,3.50
2023-01-18T14:29:18.736Z,4.65
2023-01-18T14:31:50.368Z,3.65
2023-01-18T14:34:30.356Z,4.57
2023-01-18T14:37:00.458Z,5.55
2023-01-18T14:39:30.101Z,3.50
2023-01-18T14:42:04.117Z,4.43
2023-01-18T14:44:48.626Z,4.40
2023-01-18T14:47:24.757Z,4.80
2023-01-18T14:49:53.395Z,6.10
2023-01-18T14:52:21.852Z,4.63
2023-01-18T14:54:55.690Z,7.82
2023-01-18T14:57:23.883Z,4.90
2023-01-18T14:59:53.220Z,4.65
2023-01-18T15:02:26.008Z,5.18
2023-01-18T15:05:16.989Z,5.03
2023-01-18T15:07:50.171Z,4.75
2023-01-18T15:10:19.114Z,4.70
2023-01-18T15:12:56.656Z,6.20
2023-01-18T15:15:32.032Z,6.43
2023-01-18T15:18:10.594Z,12.95
2023-01-18T15:20:51.750Z,8.27
2023-01-18T15:23:18.603Z,6.95
2023-01-18T15:25:48.830Z,8.25
2023-01-18T15:28:23.594Z,6.10
2023-01-18T15:30:53.536Z,6.93
2023-01-18T15:33:21.853Z,5.72
2023-01-18T15:35:53.213Z,11.43
2023-01-18T15:38:20.676Z,6.78
2023-01-18T15:41:05.084Z,5.55
2023-01-18T15:43:51.088Z,10.05
2023-01-18T15:46:18.518Z,7.18
2023-01-18T15:48:54.657Z,6.50
2023-01-18T15:51:22.981Z,5.78
2023-01-18T15:53:56.157Z,5.78
2023-01-18T15:56:26.752Z,6.90
2023-01-18T15:58:56.788Z,7.88
2023-01-18T16:01:28.691Z,6.90
2023-01-18T16:04:04.036Z,6.45
2023-01-18T16:06:33.872Z,8.82
2023-01-18T16:09:12.150Z,10.80
2023-01-18T16:11:53.086Z,7.85
2023-01-18T16:14:28.857Z,11.85
2023-01-18T16:17:07.738Z,9.60
2023-01-18T16:19:40.428Z,8.18
2023-01-18T16:22:16.773Z,10.88
2023-01-18T16:24:50.978Z,12.55
2023-01-18T16:27:23.100Z,9.32
2023-01-18T16:29:55.023Z,8.93
2023-01-18T16:32:21.800Z,8.55
2023-01-18T16:34:48.937Z,12.52
2023-01-18T16:37:17.211Z,8.73
2023-01-18T16:39:44.400Z,7.68
2023-01-18T16:42:12.534Z,11.23
2023-01-18T16:44:42.659Z,13.38
2023-01-18T16:47:14.943Z,9.13
2023-01-18T16:49:44.127Z,10.48
2023-01-18T16:52:13.319Z,9.15
2023-01-18T16:54:44.944Z,12.57
2023-01-18T16:57:20.313Z,12.32
2023-01-18T16:59:47.285Z,12.02
2023-01-18T17:02:14.759Z,13.40
2023-01-18T17:04:41.790Z,12.57
2023-01-18T17:07:11.736Z,13.50
2023-01-18T17:09:47.868Z,14.63
2023-01-18T17:12:15.920Z,17.92
2023-01-18T17:14:43.306Z,13.70
2023-01-18T17:17:10.750Z,18.10
2023-01-18T17:19:43.163Z,18.75
2023-01-18T17:22:10.339Z,15.82
2023-01-18T17:24:37.258Z,21.33
2023-01-18T17:27:04.121Z,20.42
2023-01-18T17:29:30.885Z,25.20
2023-01-18T17:31:58.105Z,16.98
2023-01-18T17:34:28.437Z,23.08
2023-01-18T17:36:56.285Z,18.83
2023-01-18T17:39:28.103Z,19.75
2023-01-18T17:42:04.156Z,18.67
2023-01-18T17:44:36.748Z,19.90
2023-01-18T17:47:04.069Z,18.42
2023-01-18T17:49:30.905Z,17.75
2023-01-18T17:51:57.704Z,21.30
2023-01-18T17:54:24.485Z,26.45
2023-01-18T17:56:51.443Z,20.10
2023-01-18T17:59:18.282Z,17.40
2023-01-18T18:01:45.102Z,20.95
2023-01-18T18:04:11.957Z,22.98
2023-01-18T18:06:46.081Z,20.92
2023-01-18T18:09:16.403Z,17.13
2023-01-18T18:11:43.734Z,18.92
2023-01-18T18:14:10.490Z,18.30
2023-01-18T18:16:43.166Z,22.67
2023-01-18T18:19:14.484Z,18.75
2023-01-18T18:21:42.973Z,19.98
2023-01-18T18:24:10.146Z,21.60
2023-01-18T18:26:37.092Z,19.17
2023-01-18T18:29:04.418Z,22.65
2023-01-18T18:31:31.308Z,19.23
2023-01-18T18:33:58.210Z,19.92
2023-01-18T18:36:27.326Z,22.08
2023-01-18T18:38:54.356Z,21.73
2023-01-18T18:41:21.229Z,18.38
2023-01-18T18:43:48.121Z,19.80
2023-01-18T18:46:15.065Z,20.70
2023-01-18T18:48:42.653Z,18.38
2023-01-18T18:51:09.936Z,23.88
2023-01-18T18:53:39.597Z,20.67
2023-01-18T18:56:10.186Z,23.00
2023-01-18T18:58:37.926Z,18.85
2023-01-18T19:01:05.617Z,20.73
2023-01-18T19:03:33.116Z,22.40
2023-01-18T19:05:59.904Z,22.70
2023-01-18T19:08:26.639Z,25.38
2023-01-18T19:10:54.574Z,22.65
2023-01-18T19:13:21.349Z,20.85
2023-01-18T19:15:49.387Z,22.05
2023-01-18T19:18:16.167Z,25.70
2023-01-18T19:20:43.230Z,20.98
2023-01-18T19:23:11.199Z,21.05
2023-01-18T19:25:39.160Z,22.38
2023-01-18T19:28:05.961Z,22.55
2023-01-18T19:30:33.387Z,30.13
2023-01-18T19:33:00.808Z,25.42
2023-01-18T19:35:28.059Z,21.77
2023-01-18T19:37:55.337Z,29.63
2023-01-18T19:40:22.185Z,26.35
2023-01-18T19:42:55.991Z,33.00
2023-01-18T19:45:28.265Z,31.02
2023-01-18T19:47:57.583Z,25.60
2023-01-18T19:50:25.419Z,29.65
2023-01-18T19:52:52.406Z,28.25
2023-01-18T19:55:20.136Z,28.65
2023-01-18T19:57:47.159Z,31.40
2023-01-18T20:00:16.628Z,29.35
2023-01-18T20:02:43.637Z,29.30
2023-01-18T20:05:10.744Z,33.20
2023-01-18T20:07:40.804Z,33.22
2023-01-18T20:10:08.362Z,28.95
2023-01-18T20:12:35.176Z,33.15
2023-01-18T20:15:02.017Z,30.60
2023-01-18T20:17:28.826Z,28.42
2023-01-18T20:19:55.589Z,26.77
2023-01-18T20:22:23.118Z,34.40
2023-01-18T20:24:50.052Z,30.67
2023-01-18T20:27:17.350Z,32.28
2023-01-18T20:29:44.849Z,29.38
2023-01-18T20:32:17.159Z,31.67
2023-01-18T20:34:46.794Z,25.20
2023-01-18T20:37:15.062Z,29.40
2023-01-18T20:39:42.044Z,25.15
2023-01-18T20:42:09.066Z,25.23
2023-01-18T20:44:36.071Z,27.65
2023-01-18T20:47:02.885Z,24.60
2023-01-18T20:49:37.595Z,24.02
2023-01-18T20:52:05.961Z,21.50
2023-01-18T20:54:34.720Z,27.15
2023-01-18T20:57:02.397Z,22.85
2023-01-18T20:59:29.272Z,24.33
2023-01-18T21:01:56.437Z,23.58
2023-01-18T21:04:23.401Z,22.95
2023-01-18T21:06:50.177Z,31.60
2023-01-18T21:09:17.306Z,29.83
2023-01-18T21:11:44.179Z,22.83
2023-01-18T21:14:11.751Z,22.60
2023-01-18T21:16:38.529Z,20.45
2023-01-18T21:19:05.328Z,25.20
2023-01-18T21:21:32.181Z,24.23
2023-01-18T21:23:59.814Z,27.23
2023-01-18T21:26:26.983Z,23.15
2023-01-18T21:28:54.535Z,24.10
2023-01-18T21:31:21.890Z,21.20
2023-01-18T21:33:49.358Z,23.25
2023-01-18T21:36:17.899Z,22.83
2023-01-18T21:38:44.793Z,27.67
2023-01-18T21:41:30.571Z,24.13
2023-01-18T21:44:16.136Z,22.35
2023-01-18T21:46:47.568Z,26.48
2023-01-18T21:49:43.331Z,20.45
2023-01-18T21:52:38.270Z,21.88
2023-01-18T21:55:05.577Z,26.67
2023-01-18T21:57:32.377Z,25.95
2023-01-18T21:59:59.154Z,27.77
2023-01-18T22:02:26.163Z,26.23
2023-01-18T22:04:59.380Z,22.35
2023-01-18T22:07:30.383Z,26.45
2023-01-18T22:10:05.110Z,23.88
2023-01-18T22:12:35.302Z,29.38
2023-01-18T22:15:04.388Z,27.90
2023-01-18T22:17:31.397Z,25.25
2023-01-18T22:19:58.273Z,20.40
2023-01-18T22:22:25.051Z,28.70
2023-01-18T22:24:51.880Z,16.98
2023-01-18T22:27:18.957Z,27.08
2023-01-18T22:29:45.724Z,25.25
2023-01-18T22:32:12.519Z,25.67
2023-01-18T22:34:39.308Z,22.23
2023-01-18T22:37:06.062Z,23.40
2023-01-18T22:39:32.995Z,23.48
2023-01-18T22:41:59.731Z,23.10
2023-01-18T22:44:26.476Z,28.73
2023-01-18T22:46:53.293Z,25.55
2023-01-18T22:49:20.033Z,25.27
2023-01-18T22:51:46.797Z,26.35
2023-01-18T22:54:13.591Z,21.15
2023-01-18T22:56:40.397Z,24.60
2023-01-18T22:59:07.836Z,21.95
2023-01-18T23:01:34.666Z,22.85
2023-01-18T23:04:03.873Z,21.70
2023-01-18T23:06:42.453Z,24.45
2023-01-18T23:09:10.075Z,26.50
2023-01-18T23:11:37.018Z,27.15
2023-01-18T23:14:22.639Z,23.52
2023-01-18T23:17:08.143Z,34.53
2023-01-18T23:19:35.491Z,25.27
2023-01-18T23:22:07.151Z,24.70
2023-01-18T23:24:36.063Z,22.60
2023-01-18T23:27:04.519Z,19.45
2023-01-18T23:29:31.492Z,23.20
2023-01-18T23:31:58.519Z,22.42
2023-01-18T23:34:25.740Z,21.60
2023-01-18T23:36:52.920Z,22.65
2023-01-18T23:39:38.063Z,27.83
2023-01-18T23:42:23.642Z,25.98
2023-01-18T23:45:09.241Z,25.20
2023-01-18T23:47:55.013Z,23.88
2023-01-18T23:50:40.681Z,20.55
2023-01-18T23:53:31.021Z,27.52
2023-01-18T23:55:58.109Z,22.52
2023-01-18T23:58:25.316Z,20.73
